sensor_id;sensor_type;location;lat;lon;timestamp;P1;durP1;ratioP1;P2;durP2;ratioP2
5416;SDS011;2731;50.754;12.990;2022-08-21T00:00:36;19.80;;;15.77;;
5416;SDS011;2731;50.754;12.990;2022-08-21T00:03:04;21.95;;;16.65;;
5416;SDS011;2731;50.754;12.990;2022-08-21T00:05:32;20.00;;;15.65;;
5416;SDS011;2731;50.754;12.990;2022-08-21T00:08:00;20.85;;;16.77;;
5416;SDS011;2731;50.754;12.990;2022-08-21T00:10:26;24.77;;;16.45;;
5416;SDS011;2731;50.754;12.990;2022-08-21T00:12:53;18.27;;;15.95;;
5416;SDS011;2731;50.754;12.990;2022-08-21T00:15:23;21.35;;;16.70;;
5416;SDS011;2731;50.754;12.990;2022-08-21T00:17:55;19.65;;;15.82;;
5416;SDS011;2731;50.754;12.990;2022-08-21T00:20:21;20.00;;;15.38;;
5416;SDS011;2731;50.754;12.990;2022-08-21T00:22:49;20.85;;;16.30;;
5416;SDS011;2731;50.754;12.990;2022-08-21T00:25:15;21.60;;;16.40;;
5416;SDS011;2731;50.754;12.990;2022-08-21T00:27:42;18.58;;;15.02;;
5416;SDS011;2731;50.754;12.990;2022-08-21T00:30:09;23.42;;;16.20;;
5416;SDS011;2731;50.754;12.990;2022-08-21T00:32:37;21.52;;;16.42;;
5416;SDS011;2731;50.754;12.990;2022-08-21T00:35:08;17.38;;;15.48;;
5416;SDS011;2731;50.754;12.990;2022-08-21T00:37:36;20.35;;;16.70;;
5416;SDS011;2731;50.754;12.990;2022-08-21T00:40:04;19.40;;;16.20;;
5416;SDS011;2731;50.754;12.990;2022-08-21T00:42:37;20.60;;;16.05;;
5416;SDS011;2731;50.754;12.990;2022-08-21T00:45:05;19.30;;;15.68;;
5416;SDS011;2731;50.754;12.990;2022-08-21T00:47:32;19.50;;;15.68;;
5416;SDS011;2731;50.754;12.990;2022-08-21T00:49:57;21.73;;;16.17;;
5416;SDS011;2731;50.754;12.990;2022-08-21T00:52:24;19.95;;;16.15;;
5416;SDS011;2731;50.754;12.990;2022-08-21T00:54:52;19.67;;;15.70;;
5416;SDS011;2731;50.754;12.990;2022-08-21T00:57:24;20.55;;;15.90;;
5416;SDS011;2731;50.754;12.990;2022-08-21T00:59:52;18.90;;;16.30;;
5416;SDS011;2731;50.754;12.990;2022-08-21T01:02:21;19.33;;;15.98;;
5416;SDS011;2731;50.754;12.990;2022-08-21T01:04:47;21.00;;;15.55;;
5416;SDS011;2731;50.754;12.990;2022-08-21T01:07:12;20.13;;;15.90;;
5416;SDS011;2731;50.754;12.990;2022-08-21T01:09:38;20.25;;;14.50;;
5416;SDS011;2731;50.754;12.990;2022-08-21T01:12:04;18.48;;;15.18;;
5416;SDS011;2731;50.754;12.990;2022-08-21T01:14:31;18.17;;;14.77;;
5416;SDS011;2731;50.754;12.990;2022-08-21T01:16:57;19.75;;;16.63;;
5416;SDS011;2731;50.754;12.990;2022-08-21T01:19:24;22.42;;;16.63;;
5416;SDS011;2731;50.754;12.990;2022-08-21T01:21:52;18.58;;;16.02;;
5416;SDS011;2731;50.754;12.990;2022-08-21T01:24:18;20.88;;;17.08;;
5416;SDS011;2731;50.754;12.990;2022-08-21T01:26:44;24.08;;;16.98;;
5416;SDS011;2731;50.754;12.990;2022-08-21T01:31:45;20.17;;;16.02;;
5416;SDS011;2731;50.754;12.990;2022-08-21T01:34:11;22.58;;;17.25;;
5416;SDS011;2731;50.754;12.990;2022-08-21T01:36:38;19.63;;;16.83;;
5416;SDS011;2731;50.754;12.990;2022-08-21T01:39:04;20.35;;;16.27;;
5416;SDS011;2731;50.754;12.990;2022-08-21T01:41:33;22.00;;;16.40;;
5416;SDS011;2731;50.754;12.990;2022-08-21T01:44:00;20.35;;;16.73;;
5416;SDS011;2731;50.754;12.990;2022-08-21T01:46:25;19.50;;;15.95;;
5416;SDS011;2731;50.754;12.990;2022-08-21T01:48:51;21.58;;;16.73;;
5416;SDS011;2731;50.754;12.990;2022-08-21T01:51:16;21.70;;;17.20;;
5416;SDS011;2731;50.754;12.990;2022-08-21T01:53:41;21.35;;;17.00;;
5416;SDS011;2731;50.754;12.990;2022-08-21T01:56:08;21.67;;;17.42;;
5416;SDS011;2731;50.754;12.990;2022-08-21T01:58:35;20.02;;;15.70;;
5416;SDS011;2731;50.754;12.990;2022-08-21T02:01:01;23.55;;;18.27;;
5416;SDS011;2731;50.754;12.990;2022-08-21T02:03:27;22.92;;;17.35;;
5416;SDS011;2731;50.754;12.990;2022-08-21T02:05:53;21.48;;;17.42;;
5416;SDS011;2731;50.754;12.990;2022-08-21T02:08:19;27.95;;;18.25;;
5416;SDS011;2731;50.754;12.990;2022-08-21T02:10:48;21.25;;;16.95;;
5416;SDS011;2731;50.754;12.990;2022-08-21T02:13:14;22.17;;;17.48;;
5416;SDS011;2731;50.754;12.990;2022-08-21T02:15:39;25.00;;;19.27;;
5416;SDS011;2731;50.754;12.990;2022-08-21T02:18:05;23.50;;;18.98;;
5416;SDS011;2731;50.754;12.990;2022-08-21T02:20:36;22.02;;;18.90;;
5416;SDS011;2731;50.754;12.990;2022-08-21T02:23:05;26.05;;;20.92;;
5416;SDS011;2731;50.754;12.990;2022-08-21T02:25:31;27.33;;;20.75;;
5416;SDS011;2731;50.754;12.990;2022-08-21T02:27:57;27.58;;;20.95;;
5416;SDS011;2731;50.754;12.990;2022-08-21T02:30:25;34.65;;;24.27;;
5416;SDS011;2731;50.754;12.990;2022-08-21T02:32:54;34.53;;;23.95;;
5416;SDS011;2731;50.754;12.990;2022-08-21T02:35:22;38.42;;;26.55;;
5416;SDS011;2731;50.754;12.990;2022-08-21T02:37:58;39.17;;;27.27;;
5416;SDS011;2731;50.754;12.990;2022-08-21T02:40:31;38.30;;;26.52;;
5416;SDS011;2731;50.754;12.990;2022-08-21T02:42:58;42.60;;;29.80;;
5416;SDS011;2731;50.754;12.990;2022-08-21T02:45:23;45.35;;;30.98;;
5416;SDS011;2731;50.754;12.990;2022-08-21T02:47:53;52.30;;;32.28;;
5416;SDS011;2731;50.754;12.990;2022-08-21T02:50:25;45.65;;;31.75;;
5416;SDS011;2731;50.754;12.990;2022-08-21T02:52:52;48.70;;;33.80;;
5416;SDS011;2731;50.754;12.990;2022-08-21T02:55:20;51.08;;;32.05;;
5416;SDS011;2731;50.754;12.990;2022-08-21T02:57:48;45.05;;;30.98;;
5416;SDS011;2731;50.754;12.990;2022-08-21T03:00:14;47.15;;;30.58;;
5416;SDS011;2731;50.754;12.990;2022-08-21T03:02:40;44.50;;;29.50;;
5416;SDS011;2731;50.754;12.990;2022-08-21T03:05:06;40.58;;;28.05;;
5416;SDS011;2731;50.754;12.990;2022-08-21T03:07:32;41.58;;;28.90;;
5416;SDS011;2731;50.754;12.990;2022-08-21T03:09:59;39.92;;;28.15;;
5416;SDS011;2731;50.754;12.990;2022-08-21T03:12:25;46.13;;;29.58;;
5416;SDS011;2731;50.754;12.990;2022-08-21T03:14:51;42.78;;;28.60;;
5416;SDS011;2731;50.754;12.990;2022-08-21T03:17:17;45.40;;;28.73;;
5416;SDS011;2731;50.754;12.990;2022-08-21T03:19:42;42.03;;;30.25;;
5416;SDS011;2731;50.754;12.990;2022-08-21T03:22:08;45.72;;;30.15;;
5416;SDS011;2731;50.754;12.990;2022-08-21T03:24:34;39.25;;;27.92;;
5416;SDS011;2731;50.754;12.990;2022-08-21T03:26:59;42.75;;;28.92;;
5416;SDS011;2731;50.754;12.990;2022-08-21T03:29:25;39.25;;;27.52;;
5416;SDS011;2731;50.754;12.990;2022-08-21T03:31:50;35.60;;;25.55;;
5416;SDS011;2731;50.754;12.990;2022-08-21T03:34:19;35.55;;;27.33;;
5416;SDS011;2731;50.754;12.990;2022-08-21T03:36:44;36.33;;;25.85;;
5416;SDS011;2731;50.754;12.990;2022-08-21T03:39:10;35.90;;;26.50;;
5416;SDS011;2731;50.754;12.990;2022-08-21T03:41:35;40.38;;;25.92;;
5416;SDS011;2731;50.754;12.990;2022-08-21T03:44:02;39.33;;;27.30;;
5416;SDS011;2731;50.754;12.990;2022-08-21T03:46:28;40.67;;;25.45;;
5416;SDS011;2731;50.754;12.990;2022-08-21T03:48:53;40.55;;;27.05;;
5416;SDS011;2731;50.754;12.990;2022-08-21T03:51:19;32.95;;;23.88;;
5416;SDS011;2731;50.754;12.990;2022-08-21T03:53:50;36.95;;;25.92;;
5416;SDS011;2731;50.754;12.990;2022-08-21T03:56:15;35.75;;;23.55;;
5416;SDS011;2731;50.754;12.990;2022-08-21T03:58:41;37.38;;;25.15;;
5416;SDS011;2731;50.754;12.990;2022-08-21T04:01:07;37.85;;;25.30;;
5416;SDS011;2731;50.754;12.990;2022-08-21T04:03:34;32.53;;;24.00;;
5416;SDS011;2731;50.754;12.990;2022-08-21T04:06:01;30.98;;;22.67;;
5416;SDS011;2731;50.754;12.990;2022-08-21T04:08:27;34.67;;;24.52;;
5416;SDS011;2731;50.754;12.990;2022-08-21T04:10:54;29.27;;;22.38;;
5416;SDS011;2731;50.754;12.990;2022-08-21T04:13:20;35.03;;;23.55;;
5416;SDS011;2731;50.754;12.990;2022-08-21T04:15:49;31.70;;;22.65;;
5416;SDS011;2731;50.754;12.990;2022-08-21T04:18:15;32.80;;;23.00;;
5416;SDS011;2731;50.754;12.990;2022-08-21T04:20:42;29.88;;;22.85;;
5416;SDS011;2731;50.754;12.990;2022-08-21T04:23:08;28.38;;;20.90;;
5416;SDS011;2731;50.754;12.990;2022-08-21T04:25:34;30.00;;;20.25;;
5416;SDS011;2731;50.754;12.990;2022-08-21T04:28:01;28.50;;;22.02;;
5416;SDS011;2731;50.754;12.990;2022-08-21T04:30:27;29.77;;;21.45;;
5416;SDS011;2731;50.754;12.990;2022-08-21T04:32:52;33.95;;;22.33;;
5416;SDS011;2731;50.754;12.990;2022-08-21T04:35:19;30.40;;;21.67;;
5416;SDS011;2731;50.754;12.990;2022-08-21T04:37:45;29.08;;;21.35;;
5416;SDS011;2731;50.754;12.990;2022-08-21T04:40:15;32.42;;;21.90;;
5416;SDS011;2731;50.754;12.990;2022-08-21T04:42:45;27.77;;;20.13;;
5416;SDS011;2731;50.754;12.990;2022-08-21T04:45:24;26.67;;;19.85;;
5416;SDS011;2731;50.754;12.990;2022-08-21T04:47:53;33.85;;;22.45;;
5416;SDS011;2731;50.754;12.990;2022-08-21T04:50:21;30.50;;;20.90;;
5416;SDS011;2731;50.754;12.990;2022-08-21T04:52:48;27.63;;;20.15;;
5416;SDS011;2731;50.754;12.990;2022-08-21T04:55:14;28.25;;;21.80;;
5416;SDS011;2731;50.754;12.990;2022-08-21T04:57:41;29.67;;;22.40;;
5416;SDS011;2731;50.754;12.990;2022-08-21T05:00:08;29.33;;;21.10;;
5416;SDS011;2731;50.754;12.990;2022-08-21T05:02:35;28.30;;;20.02;;
5416;SDS011;2731;50.754;12.990;2022-08-21T05:05:02;28.63;;;20.52;;
5416;SDS011;2731;50.754;12.990;2022-08-21T05:07:28;30.40;;;21.45;;
5416;SDS011;2731;50.754;12.990;2022-08-21T05:09:56;28.73;;;19.92;;
5416;SDS011;2731;50.754;12.990;2022-08-21T05:12:22;29.20;;;21.52;;
5416;SDS011;2731;50.754;12.990;2022-08-21T05:14:51;31.55;;;21.75;;
5416;SDS011;2731;50.754;12.990;2022-08-21T05:17:16;31.92;;;21.80;;
5416;SDS011;2731;50.754;12.990;2022-08-21T05:19:41;28.35;;;20.65;;
5416;SDS011;2731;50.754;12.990;2022-08-21T05:22:07;29.48;;;21.10;;
5416;SDS011;2731;50.754;12.990;2022-08-21T05:24:34;27.45;;;20.77;;
5416;SDS011;2731;50.754;12.990;2022-08-21T05:27:00;26.05;;;19.08;;
5416;SDS011;2731;50.754;12.990;2022-08-21T05:29:25;25.25;;;18.67;;
5416;SDS011;2731;50.754;12.990;2022-08-21T05:31:56;26.38;;;19.88;;
5416;SDS011;2731;50.754;12.990;2022-08-21T05:34:23;26.70;;;19.85;;
5416;SDS011;2731;50.754;12.990;2022-08-21T05:36:49;28.48;;;20.13;;
5416;SDS011;2731;50.754;12.990;2022-08-21T05:39:17;24.95;;;19.35;;
5416;SDS011;2731;50.754;12.990;2022-08-21T05:41:43;25.23;;;18.17;;
5416;SDS011;2731;50.754;12.990;2022-08-21T05:44:08;26.77;;;20.65;;
5416;SDS011;2731;50.754;12.990;2022-08-21T05:46:33;26.67;;;18.77;;
5416;SDS011;2731;50.754;12.990;2022-08-21T05:48:59;27.02;;;18.35;;
5416;SDS011;2731;50.754;12.990;2022-08-21T05:51:24;26.73;;;19.98;;
5416;SDS011;2731;50.754;12.990;2022-08-21T05:53:49;29.65;;;20.48;;
5416;SDS011;2731;50.754;12.990;2022-08-21T05:56:19;23.90;;;17.63;;
5416;SDS011;2731;50.754;12.990;2022-08-21T05:58:44;25.08;;;18.27;;
5416;SDS011;2731;50.754;12.990;2022-08-21T06:01:10;23.92;;;17.20;;
5416;SDS011;2731;50.754;12.990;2022-08-21T06:03:37;23.80;;;18.10;;
5416;SDS011;2731;50.754;12.990;2022-08-21T06:06:04;22.67;;;17.38;;
5416;SDS011;2731;50.754;12.990;2022-08-21T06:08:29;25.00;;;18.15;;
5416;SDS011;2731;50.754;12.990;2022-08-21T06:10:55;23.85;;;16.80;;
5416;SDS011;2731;50.754;12.990;2022-08-21T06:13:22;23.48;;;17.13;;
5416;SDS011;2731;50.754;12.990;2022-08-21T06:15:48;21.73;;;17.35;;
5416;SDS011;2731;50.754;12.990;2022-08-21T06:18:14;26.77;;;17.40;;
5416;SDS011;2731;50.754;12.990;2022-08-21T06:20:40;21.73;;;16.50;;
5416;SDS011;2731;50.754;12.990;2022-08-21T06:23:05;22.90;;;17.42;;
5416;SDS011;2731;50.754;12.990;2022-08-21T06:25:31;22.60;;;17.48;;
5416;SDS011;2731;50.754;12.990;2022-08-21T06:28:04;19.00;;;14.60;;
5416;SDS011;2731;50.754;12.990;2022-08-21T06:30:30;17.52;;;15.15;;
5416;SDS011;2731;50.754;12.990;2022-08-21T06:32:56;17.83;;;14.10;;
5416;SDS011;2731;50.754;12.990;2022-08-21T06:35:23;19.10;;;14.50;;
5416;SDS011;2731;50.754;12.990;2022-08-21T06:37:49;19.73;;;14.02;;
5416;SDS011;2731;50.754;12.990;2022-08-21T06:40:15;19.33;;;14.88;;
5416;SDS011;2731;50.754;12.990;2022-08-21T06:42:41;21.40;;;15.07;;
5416;SDS011;2731;50.754;12.990;2022-08-21T06:45:06;19.33;;;13.55;;
5416;SDS011;2731;50.754;12.990;2022-08-21T06:47:32;20.02;;;14.68;;
5416;SDS011;2731;50.754;12.990;2022-08-21T06:50:00;18.05;;;13.60;;
5416;SDS011;2731;50.754;12.990;2022-08-21T06:52:25;19.48;;;15.48;;
5416;SDS011;2731;50.754;12.990;2022-08-21T06:54:53;18.08;;;14.10;;
5416;SDS011;2731;50.754;12.990;2022-08-21T06:57:21;21.58;;;16.50;;
5416;SDS011;2731;50.754;12.990;2022-08-21T06:59:46;22.92;;;15.00;;
5416;SDS011;2731;50.754;12.990;2022-08-21T07:02:13;15.88;;;12.57;;
5416;SDS011;2731;50.754;12.990;2022-08-21T07:04:39;18.33;;;14.07;;
5416;SDS011;2731;50.754;12.990;2022-08-21T07:07:04;16.95;;;13.32;;
5416;SDS011;2731;50.754;12.990;2022-08-21T07:09:30;19.40;;;15.18;;
5416;SDS011;2731;50.754;12.990;2022-08-21T07:11:55;19.80;;;14.80;;
5416;SDS011;2731;50.754;12.990;2022-08-21T07:14:22;17.05;;;13.20;;
5416;SDS011;2731;50.754;12.990;2022-08-21T07:16:48;18.88;;;14.85;;
5416;SDS011;2731;50.754;12.990;2022-08-21T07:19:14;15.68;;;12.70;;
5416;SDS011;2731;50.754;12.990;2022-08-21T07:21:43;18.45;;;14.10;;
5416;SDS011;2731;50.754;12.990;2022-08-21T07:24:09;19.23;;;13.23;;
5416;SDS011;2731;50.754;12.990;2022-08-21T07:26:37;21.50;;;14.18;;
5416;SDS011;2731;50.754;12.990;2022-08-21T07:29:03;17.35;;;15.07;;
5416;SDS011;2731;50.754;12.990;2022-08-21T07:31:29;20.27;;;14.93;;
5416;SDS011;2731;50.754;12.990;2022-08-21T07:33:57;21.17;;;13.82;;
5416;SDS011;2731;50.754;12.990;2022-08-21T07:36:22;21.08;;;15.02;;
5416;SDS011;2731;50.754;12.990;2022-08-21T07:38:49;15.20;;;12.32;;
5416;SDS011;2731;50.754;12.990;2022-08-21T07:41:19;15.35;;;12.98;;
5416;SDS011;2731;50.754;12.990;2022-08-21T07:43:46;16.15;;;12.38;;
5416;SDS011;2731;50.754;12.990;2022-08-21T07:46:12;18.05;;;13.85;;
5416;SDS011;2731;50.754;12.990;2022-08-21T07:48:37;18.85;;;15.00;;
5416;SDS011;2731;50.754;12.990;2022-08-21T07:51:05;16.73;;;13.38;;
5416;SDS011;2731;50.754;12.990;2022-08-21T07:53:35;17.23;;;13.00;;
5416;SDS011;2731;50.754;12.990;2022-08-21T07:56:01;18.13;;;13.70;;
5416;SDS011;2731;50.754;12.990;2022-08-21T07:58:28;21.10;;;13.07;;
5416;SDS011;2731;50.754;12.990;2022-08-21T08:00:57;20.20;;;14.85;;
5416;SDS011;2731;50.754;12.990;2022-08-21T08:03:24;22.35;;;15.02;;
5416;SDS011;2731;50.754;12.990;2022-08-21T08:05:49;16.55;;;13.02;;
5416;SDS011;2731;50.754;12.990;2022-08-21T08:08:15;17.10;;;12.13;;
5416;SDS011;2731;50.754;12.990;2022-08-21T08:10:40;19.40;;;14.27;;
5416;SDS011;2731;50.754;12.990;2022-08-21T08:13:06;20.65;;;14.13;;
5416;SDS011;2731;50.754;12.990;2022-08-21T08:15:31;20.50;;;14.18;;
5416;SDS011;2731;50.754;12.990;2022-08-21T08:17:58;16.60;;;13.00;;
5416;SDS011;2731;50.754;12.990;2022-08-21T08:20:25;20.80;;;16.38;;
5416;SDS011;2731;50.754;12.990;2022-08-21T08:22:51;20.08;;;14.13;;
5416;SDS011;2731;50.754;12.990;2022-08-21T08:25:19;17.50;;;13.63;;
5416;SDS011;2731;50.754;12.990;2022-08-21T08:27:50;21.55;;;14.07;;
5416;SDS011;2731;50.754;12.990;2022-08-21T08:30:16;21.35;;;15.32;;
5416;SDS011;2731;50.754;12.990;2022-08-21T08:32:46;20.80;;;15.40;;
5416;SDS011;2731;50.754;12.990;2022-08-21T08:35:15;19.83;;;14.70;;
5416;SDS011;2731;50.754;12.990;2022-08-21T08:37:42;19.40;;;13.55;;
5416;SDS011;2731;50.754;12.990;2022-08-21T08:40:20;18.67;;;15.57;;
5416;SDS011;2731;50.754;12.990;2022-08-21T08:42:50;17.92;;;15.18;;
5416;SDS011;2731;50.754;12.990;2022-08-21T08:45:17;17.63;;;14.73;;
5416;SDS011;2731;50.754;12.990;2022-08-21T08:47:46;19.15;;;15.45;;
5416;SDS011;2731;50.754;12.990;2022-08-21T08:52:45;19.90;;;15.02;;
5416;SDS011;2731;50.754;12.990;2022-08-21T08:55:18;15.52;;;12.88;;
5416;SDS011;2731;50.754;12.990;2022-08-21T08:57:47;16.73;;;13.60;;
5416;SDS011;2731;50.754;12.990;2022-08-21T09:00:15;17.90;;;13.63;;
5416;SDS011;2731;50.754;12.990;2022-08-21T09:02:43;19.70;;;13.18;;
5416;SDS011;2731;50.754;12.990;2022-08-21T09:05:15;17.10;;;13.05;;
5416;SDS011;2731;50.754;12.990;2022-08-21T09:11:03;15.67;;;13.37;;
5416;SDS011;2731;50.754;12.990;2022-08-21T09:21:50;10.13;;;8.20;;
5416;SDS011;2731;50.754;12.990;2022-08-21T09:24:36;11.00;;;7.75;;
5416;SDS011;2731;50.754;12.990;2022-08-21T09:27:13;9.10;;;6.05;;
5416;SDS011;2731;50.754;12.990;2022-08-21T09:29:44;7.43;;;5.03;;
5416;SDS011;2731;50.754;12.990;2022-08-21T09:32:20;7.05;;;4.45;;
5416;SDS011;2731;50.754;12.990;2022-08-21T09:37:27;5.07;;;3.85;;
5416;SDS011;2731;50.754;12.990;2022-08-21T09:39:53;4.75;;;4.15;;
5416;SDS011;2731;50.754;12.990;2022-08-21T09:42:24;5.95;;;4.35;;
5416;SDS011;2731;50.754;12.990;2022-08-21T09:45:10;5.93;;;4.82;;
5416;SDS011;2731;50.754;12.990;2022-08-21T09:47:38;9.55;;;5.75;;
5416;SDS011;2731;50.754;12.990;2022-08-21T09:50:09;6.90;;;4.93;;
5416;SDS011;2731;50.754;12.990;2022-08-21T09:52:41;5.63;;;4.57;;
5416;SDS011;2731;50.754;12.990;2022-08-21T09:55:13;6.70;;;4.75;;
5416;SDS011;2731;50.754;12.990;2022-08-21T09:58:01;9.40;;;4.75;;
5416;SDS011;2731;50.754;12.990;2022-08-21T10:00:29;7.50;;;5.05;;
5416;SDS011;2731;50.754;12.990;2022-08-21T10:03:29;5.50;;;4.18;;
5416;SDS011;2731;50.754;12.990;2022-08-21T10:08:33;7.43;;;4.78;;
5416;SDS011;2731;50.754;12.990;2022-08-21T10:11:11;6.35;;;3.20;;
5416;SDS011;2731;50.754;12.990;2022-08-21T10:16:20;5.63;;;2.95;;
5416;SDS011;2731;50.754;12.990;2022-08-21T10:25:41;5.20;;;2.70;;
5416;SDS011;2731;50.754;12.990;2022-08-21T10:28:14;3.77;;;3.07;;
5416;SDS011;2731;50.754;12.990;2022-08-21T10:36:33;4.90;;;2.95;;
5416;SDS011;2731;50.754;12.990;2022-08-21T10:47:25;7.50;;;3.38;;
5416;SDS011;2731;50.754;12.990;2022-08-21T10:55:21;5.20;;;2.80;;
5416;SDS011;2731;50.754;12.990;2022-08-21T11:00:29;5.20;;;2.50;;
5416;SDS011;2731;50.754;12.990;2022-08-21T11:06:20;5.45;;;2.58;;
5416;SDS011;2731;50.754;12.990;2022-08-21T11:08:50;4.82;;;2.88;;
5416;SDS011;2731;50.754;12.990;2022-08-21T11:11:24;3.75;;;2.55;;
5416;SDS011;2731;50.754;12.990;2022-08-21T11:13:53;8.20;;;3.35;;
5416;SDS011;2731;50.754;12.990;2022-08-21T11:16:26;4.85;;;3.00;;
5416;SDS011;2731;50.754;12.990;2022-08-21T11:19:06;7.72;;;4.65;;
5416;SDS011;2731;50.754;12.990;2022-08-21T11:22:06;4.03;;;2.75;;
5416;SDS011;2731;50.754;12.990;2022-08-21T11:24:56;5.57;;;2.78;;
5416;SDS011;2731;50.754;12.990;2022-08-21T11:30:06;12.85;;;2.92;;
5416;SDS011;2731;50.754;12.990;2022-08-21T11:35:27;5.15;;;2.80;;
5416;SDS011;2731;50.754;12.990;2022-08-21T11:44:34;6.88;;;2.75;;
5416;SDS011;2731;50.754;12.990;2022-08-21T11:51:39;6.45;;;2.53;;
5416;SDS011;2731;50.754;12.990;2022-08-21T11:54:16;6.63;;;2.58;;
5416;SDS011;2731;50.754;12.990;2022-08-21T11:59:40;3.50;;;2.20;;
5416;SDS011;2731;50.754;12.990;2022-08-21T12:02:15;4.55;;;2.55;;
5416;SDS011;2731;50.754;12.990;2022-08-21T12:04:56;5.30;;;2.17;;
5416;SDS011;2731;50.754;12.990;2022-08-21T12:07:39;4.80;;;2.25;;
5416;SDS011;2731;50.754;12.990;2022-08-21T12:10:10;4.03;;;1.85;;
5416;SDS011;2731;50.754;12.990;2022-08-21T12:12:40;4.28;;;2.25;;
5416;SDS011;2731;50.754;12.990;2022-08-21T12:18:02;6.72;;;2.35;;
5416;SDS011;2731;50.754;12.990;2022-08-21T12:26:31;4.38;;;2.67;;
5416;SDS011;2731;50.754;12.990;2022-08-21T12:29:16;2.97;;;2.17;;
5416;SDS011;2731;50.754;12.990;2022-08-21T12:31:57;5.30;;;2.75;;
5416;SDS011;2731;50.754;12.990;2022-08-21T12:34:36;3.80;;;2.45;;
5416;SDS011;2731;50.754;12.990;2022-08-21T12:37:47;3.58;;;2.35;;
5416;SDS011;2731;50.754;12.990;2022-08-21T12:40:10;2.90;;;2.03;;
5416;SDS011;2731;50.754;12.990;2022-08-21T12:42:41;5.70;;;2.70;;
5416;SDS011;2731;50.754;12.990;2022-08-21T12:45:19;6.82;;;2.97;;
5416;SDS011;2731;50.754;12.990;2022-08-21T12:53:26;4.25;;;2.53;;
5416;SDS011;2731;50.754;12.990;2022-08-21T12:56:12;3.95;;;2.10;;
5416;SDS011;2731;50.754;12.990;2022-08-21T12:58:40;4.78;;;2.38;;
5416;SDS011;2731;50.754;12.990;2022-08-21T13:04:07;7.78;;;2.55;;
5416;SDS011;2731;50.754;12.990;2022-08-21T13:06:43;3.97;;;2.17;;
5416;SDS011;2731;50.754;12.990;2022-08-21T13:09:16;3.55;;;2.10;;
5416;SDS011;2731;50.754;12.990;2022-08-21T13:11:47;3.17;;;1.92;;
5416;SDS011;2731;50.754;12.990;2022-08-21T13:14:24;2.63;;;1.55;;
5416;SDS011;2731;50.754;12.990;2022-08-21T13:16:54;2.83;;;1.90;;
5416;SDS011;2731;50.754;12.990;2022-08-21T13:19:20;3.10;;;1.70;;
5416;SDS011;2731;50.754;12.990;2022-08-21T13:21:47;3.47;;;1.70;;
5416;SDS011;2731;50.754;12.990;2022-08-21T13:24:36;5.70;;;2.42;;
5416;SDS011;2731;50.754;12.990;2022-08-21T13:27:00;6.05;;;1.85;;
5416;SDS011;2731;50.754;12.990;2022-08-21T13:29:30;4.63;;;2.28;;
5416;SDS011;2731;50.754;12.990;2022-08-21T13:31:57;3.13;;;2.10;;
5416;SDS011;2731;50.754;12.990;2022-08-21T13:34:26;2.58;;;2.00;;
5416;SDS011;2731;50.754;12.990;2022-08-21T13:36:57;2.85;;;1.73;;
5416;SDS011;2731;50.754;12.990;2022-08-21T13:39:24;2.65;;;2.42;;
5416;SDS011;2731;50.754;12.990;2022-08-21T13:41:57;3.25;;;1.90;;
5416;SDS011;2731;50.754;12.990;2022-08-21T13:44:35;6.45;;;2.30;;
5416;SDS011;2731;50.754;12.990;2022-08-21T13:47:04;5.90;;;2.10;;
5416;SDS011;2731;50.754;12.990;2022-08-21T13:49:33;2.78;;;2.33;;
5416;SDS011;2731;50.754;12.990;2022-08-21T13:52:00;3.67;;;1.77;;
5416;SDS011;2731;50.754;12.990;2022-08-21T13:54:37;4.55;;;2.53;;
5416;SDS011;2731;50.754;12.990;2022-08-21T13:57:26;4.75;;;2.40;;
5416;SDS011;2731;50.754;12.990;2022-08-21T14:00:08;2.78;;;1.83;;
5416;SDS011;2731;50.754;12.990;2022-08-21T14:02:48;3.65;;;2.05;;
5416;SDS011;2731;50.754;12.990;2022-08-21T14:05:16;3.95;;;2.15;;
5416;SDS011;2731;50.754;12.990;2022-08-21T14:07:45;5.32;;;2.08;;
5416;SDS011;2731;50.754;12.990;2022-08-21T14:10:19;5.53;;;2.28;;
5416;SDS011;2731;50.754;12.990;2022-08-21T14:15:58;6.40;;;2.42;;
5416;SDS011;2731;50.754;12.990;2022-08-21T14:18:27;4.85;;;2.70;;
5416;SDS011;2731;50.754;12.990;2022-08-21T14:21:04;5.43;;;2.20;;
5416;SDS011;2731;50.754;12.990;2022-08-21T14:23:31;2.15;;;1.55;;
5416;SDS011;2731;50.754;12.990;2022-08-21T14:25:58;3.33;;;2.05;;
5416;SDS011;2731;50.754;12.990;2022-08-21T14:28:30;4.85;;;1.92;;
5416;SDS011;2731;50.754;12.990;2022-08-21T14:30:58;3.30;;;2.05;;
5416;SDS011;2731;50.754;12.990;2022-08-21T14:33:38;3.63;;;2.22;;
5416;SDS011;2731;50.754;12.990;2022-08-21T14:36:03;4.72;;;2.00;;
5416;SDS011;2731;50.754;12.990;2022-08-21T14:38:31;3.50;;;2.08;;
5416;SDS011;2731;50.754;12.990;2022-08-21T14:40:58;4.32;;;2.67;;
5416;SDS011;2731;50.754;12.990;2022-08-21T14:43:26;3.83;;;2.20;;
5416;SDS011;2731;50.754;12.990;2022-08-21T14:45:54;3.33;;;1.70;;
5416;SDS011;2731;50.754;12.990;2022-08-21T14:48:19;5.55;;;2.65;;
5416;SDS011;2731;50.754;12.990;2022-08-21T14:50:45;6.07;;;2.15;;
5416;SDS011;2731;50.754;12.990;2022-08-21T14:53:11;3.75;;;2.20;;
5416;SDS011;2731;50.754;12.990;2022-08-21T14:55:42;4.32;;;2.00;;
5416;SDS011;2731;50.754;12.990;2022-08-21T14:58:26;3.42;;;2.00;;
5416;SDS011;2731;50.754;12.990;2022-08-21T15:00:52;4.38;;;2.38;;
5416;SDS011;2731;50.754;12.990;2022-08-21T15:03:22;12.03;;;3.50;;
5416;SDS011;2731;50.754;12.990;2022-08-21T15:05:48;6.88;;;2.92;;
5416;SDS011;2731;50.754;12.990;2022-08-21T15:08:14;8.48;;;3.50;;
5416;SDS011;2731;50.754;12.990;2022-08-21T15:10:40;3.42;;;2.00;;
5416;SDS011;2731;50.754;12.990;2022-08-21T15:13:06;4.65;;;2.63;;
5416;SDS011;2731;50.754;12.990;2022-08-21T15:15:34;4.90;;;2.50;;
5416;SDS011;2731;50.754;12.990;2022-08-21T15:18:05;3.05;;;2.20;;
5416;SDS011;2731;50.754;12.990;2022-08-21T15:20:32;3.53;;;2.22;;
5416;SDS011;2731;50.754;12.990;2022-08-21T15:22:58;4.93;;;2.85;;
5416;SDS011;2731;50.754;12.990;2022-08-21T15:25:24;5.25;;;2.40;;
5416;SDS011;2731;50.754;12.990;2022-08-21T15:27:49;4.43;;;2.10;;
5416;SDS011;2731;50.754;12.990;2022-08-21T15:30:15;5.38;;;2.30;;
5416;SDS011;2731;50.754;12.990;2022-08-21T15:32:40;5.20;;;2.13;;
5416;SDS011;2731;50.754;12.990;2022-08-21T15:35:09;2.25;;;1.85;;
5416;SDS011;2731;50.754;12.990;2022-08-21T15:37:35;3.30;;;2.25;;
5416;SDS011;2731;50.754;12.990;2022-08-21T15:40:01;3.15;;;1.80;;
5416;SDS011;2731;50.754;12.990;2022-08-21T15:42:27;3.35;;;2.05;;
5416;SDS011;2731;50.754;12.990;2022-08-21T15:44:52;2.83;;;1.77;;
5416;SDS011;2731;50.754;12.990;2022-08-21T15:47:21;3.47;;;1.90;;
5416;SDS011;2731;50.754;12.990;2022-08-21T15:49:47;4.00;;;2.92;;
5416;SDS011;2731;50.754;12.990;2022-08-21T15:52:19;6.05;;;2.55;;
5416;SDS011;2731;50.754;12.990;2022-08-21T15:54:46;5.47;;;2.20;;
5416;SDS011;2731;50.754;12.990;2022-08-21T15:57:13;2.45;;;1.92;;
5416;SDS011;2731;50.754;12.990;2022-08-21T15:59:46;5.75;;;2.50;;
5416;SDS011;2731;50.754;12.990;2022-08-21T16:02:14;4.40;;;2.33;;
5416;SDS011;2731;50.754;12.990;2022-08-21T16:04:41;2.55;;;1.90;;
5416;SDS011;2731;50.754;12.990;2022-08-21T16:07:06;2.20;;;1.90;;
5416;SDS011;2731;50.754;12.990;2022-08-21T16:09:32;5.18;;;2.00;;
5416;SDS011;2731;50.754;12.990;2022-08-21T16:11:58;3.47;;;1.95;;
5416;SDS011;2731;50.754;12.990;2022-08-21T16:14:25;4.38;;;2.08;;
5416;SDS011;2731;50.754;12.990;2022-08-21T16:16:51;3.40;;;1.60;;
5416;SDS011;2731;50.754;12.990;2022-08-21T16:19:17;5.47;;;2.15;;
5416;SDS011;2731;50.754;12.990;2022-08-21T16:21:45;4.43;;;2.00;;
5416;SDS011;2731;50.754;12.990;2022-08-21T16:24:14;2.85;;;1.80;;
5416;SDS011;2731;50.754;12.990;2022-08-21T16:26:39;3.55;;;2.00;;
5416;SDS011;2731;50.754;12.990;2022-08-21T16:29:05;2.35;;;1.88;;
5416;SDS011;2731;50.754;12.990;2022-08-21T16:31:31;2.53;;;1.75;;